sensor_id;sensor_type;location;lat;lon;timestamp;P1;durP1;ratioP1;P2;durP2;ratioP2
16954;SDS011;8594;52.052;8.354;2023-02-18T00:00:00;13.90;;;3.30;;
16954;SDS011;8594;52.052;8.354;2023-02-18T00:02:29;11.43;;;3.27;;
16954;SDS011;8594;52.052;8.354;2023-02-18T00:04:57;17.67;;;3.60;;
16954;SDS011;8594;52.052;8.354;2023-02-18T00:07:24;14.17;;;3.60;;
16954;SDS011;8594;52.052;8.354;2023-02-18T00:09:51;15.63;;;3.50;;
16954;SDS011;8594;52.052;8.354;2023-02-18T00:12:17;14.60;;;3.90;;
16954;SDS011;8594;52.052;8.354;2023-02-18T00:14:44;11.43;;;4.40;;
16954;SDS011;8594;52.052;8.354;2023-02-18T00:17:11;12.20;;;4.93;;
16954;SDS011;8594;52.052;8.354;2023-02-18T00:19:39;17.33;;;5.07;;
16954;SDS011;8594;52.052;8.354;2023-02-18T00:22:06;16.30;;;5.43;;
16954;SDS011;8594;52.052;8.354;2023-02-18T00:24:33;18.90;;;6.33;;
16954;SDS011;8594;52.052;8.354;2023-02-18T00:26:59;16.07;;;5.73;;
16954;SDS011;8594;52.052;8.354;2023-02-18T00:29:26;15.10;;;5.80;;
16954;SDS011;8594;52.052;8.354;2023-02-18T00:31:53;16.30;;;6.50;;
16954;SDS011;8594;52.052;8.354;2023-02-18T00:34:20;21.47;;;7.73;;
16954;SDS011;8594;52.052;8.354;2023-02-18T00:36:48;19.13;;;7.60;;
16954;SDS011;8594;52.052;8.354;2023-02-18T00:39:14;21.83;;;9.13;;
16954;SDS011;8594;52.052;8.354;2023-02-18T00:41:42;18.37;;;8.37;;
16954;SDS011;8594;52.052;8.354;2023-02-18T00:44:09;25.73;;;10.10;;
16954;SDS011;8594;52.052;8.354;2023-02-18T00:46:37;24.80;;;11.00;;
16954;SDS011;8594;52.052;8.354;2023-02-18T00:49:04;28.20;;;11.40;;
16954;SDS011;8594;52.052;8.354;2023-02-18T00:51:31;27.20;;;12.73;;
16954;SDS011;8594;52.052;8.354;2023-02-18T00:54:00;37.20;;;14.80;;
16954;SDS011;8594;52.052;8.354;2023-02-18T00:56:27;34.67;;;14.80;;
16954;SDS011;8594;52.052;8.354;2023-02-18T00:58:54;32.77;;;15.07;;
16954;SDS011;8594;52.052;8.354;2023-02-18T01:01:20;37.07;;;16.53;;
16954;SDS011;8594;52.052;8.354;2023-02-18T01:03:48;35.73;;;16.70;;
16954;SDS011;8594;52.052;8.354;2023-02-18T01:06:15;35.10;;;17.60;;
16954;SDS011;8594;52.052;8.354;2023-02-18T01:08:42;34.53;;;17.03;;
16954;SDS011;8594;52.052;8.354;2023-02-18T01:11:10;34.30;;;16.93;;
16954;SDS011;8594;52.052;8.354;2023-02-18T01:13:38;39.80;;;16.17;;
16954;SDS011;8594;52.052;8.354;2023-02-18T01:16:06;40.63;;;17.60;;
16954;SDS011;8594;52.052;8.354;2023-02-18T01:18:33;35.07;;;17.37;;
16954;SDS011;8594;52.052;8.354;2023-02-18T01:21:01;38.57;;;17.67;;
16954;SDS011;8594;52.052;8.354;2023-02-18T01:23:29;42.73;;;16.30;;
16954;SDS011;8594;52.052;8.354;2023-02-18T01:25:56;38.17;;;17.93;;
16954;SDS011;8594;52.052;8.354;2023-02-18T01:28:24;43.90;;;20.13;;
16954;SDS011;8594;52.052;8.354;2023-02-18T01:30:51;40.13;;;18.20;;
16954;SDS011;8594;52.052;8.354;2023-02-18T01:33:19;36.57;;;17.70;;
16954;SDS011;8594;52.052;8.354;2023-02-18T01:35:46;44.23;;;19.10;;
16954;SDS011;8594;52.052;8.354;2023-02-18T01:38:13;42.73;;;18.23;;
16954;SDS011;8594;52.052;8.354;2023-02-18T01:40:44;43.17;;;19.23;;
16954;SDS011;8594;52.052;8.354;2023-02-18T01:43:16;40.23;;;18.73;;
16954;SDS011;8594;52.052;8.354;2023-02-18T01:48:38;40.77;;;18.93;;
16954;SDS011;8594;52.052;8.354;2023-02-18T01:51:10;33.27;;;17.77;;
16954;SDS011;8594;52.052;8.354;2023-02-18T01:53:44;45.77;;;20.80;;
16954;SDS011;8594;52.052;8.354;2023-02-18T01:56:19;47.33;;;20.47;;
16954;SDS011;8594;52.052;8.354;2023-02-18T01:58:53;44.87;;;20.33;;
16954;SDS011;8594;52.052;8.354;2023-02-18T02:01:26;49.20;;;20.83;;
16954;SDS011;8594;52.052;8.354;2023-02-18T02:03:53;40.73;;;19.33;;
16954;SDS011;8594;52.052;8.354;2023-02-18T02:06:21;38.73;;;19.97;;
16954;SDS011;8594;52.052;8.354;2023-02-18T02:08:50;45.67;;;22.20;;
16954;SDS011;8594;52.052;8.354;2023-02-18T02:11:22;48.60;;;20.10;;
16954;SDS011;8594;52.052;8.354;2023-02-18T02:14:15;51.50;;;21.63;;
16954;SDS011;8594;52.052;8.354;2023-02-18T02:17:06;44.63;;;22.70;;
16954;SDS011;8594;52.052;8.354;2023-02-18T02:20:00;45.70;;;22.30;;
16954;SDS011;8594;52.052;8.354;2023-02-18T02:23:27;52.40;;;21.77;;
16954;SDS011;8594;52.052;8.354;2023-02-18T02:26:37;45.73;;;21.20;;
16954;SDS011;8594;52.052;8.354;2023-02-18T02:29:47;45.87;;;21.17;;
16954;SDS011;8594;52.052;8.354;2023-02-18T02:36:10;48.50;;;22.53;;
16954;SDS011;8594;52.052;8.354;2023-02-18T02:38:43;43.40;;;22.60;;
16954;SDS011;8594;52.052;8.354;2023-02-18T02:41:24;51.50;;;23.23;;
16954;SDS011;8594;52.052;8.354;2023-02-18T02:44:10;51.60;;;23.63;;
16954;SDS011;8594;52.052;8.354;2023-02-18T02:46:46;52.17;;;24.07;;
16954;SDS011;8594;52.052;8.354;2023-02-18T02:49:19;45.97;;;23.60;;
16954;SDS011;8594;52.052;8.354;2023-02-18T02:52:04;45.37;;;23.57;;
16954;SDS011;8594;52.052;8.354;2023-02-18T02:54:38;46.70;;;22.90;;
16954;SDS011;8594;52.052;8.354;2023-02-18T02:57:07;48.43;;;23.43;;
16954;SDS011;8594;52.052;8.354;2023-02-18T03:00:10;52.00;;;23.87;;
16954;SDS011;8594;52.052;8.354;2023-02-18T03:02:43;55.63;;;24.30;;
16954;SDS011;8594;52.052;8.354;2023-02-18T03:05:37;50.40;;;23.80;;
16954;SDS011;8594;52.052;8.354;2023-02-18T03:08:19;50.40;;;23.43;;
16954;SDS011;8594;52.052;8.354;2023-02-18T03:11:03;51.77;;;23.63;;
16954;SDS011;8594;52.052;8.354;2023-02-18T03:13:41;52.93;;;24.03;;
16954;SDS011;8594;52.052;8.354;2023-02-18T03:16:23;52.40;;;23.43;;
16954;SDS011;8594;52.052;8.354;2023-02-18T03:18:56;52.40;;;24.30;;
16954;SDS011;8594;52.052;8.354;2023-02-18T03:21:33;53.90;;;25.50;;
16954;SDS011;8594;52.052;8.354;2023-02-18T03:24:09;52.33;;;24.30;;
16954;SDS011;8594;52.052;8.354;2023-02-18T03:26:43;51.60;;;24.97;;
16954;SDS011;8594;52.052;8.354;2023-02-18T03:29:17;50.90;;;24.70;;
16954;SDS011;8594;52.052;8.354;2023-02-18T03:31:46;53.97;;;25.93;;
16954;SDS011;8594;52.052;8.354;2023-02-18T03:34:19;47.60;;;24.77;;
16954;SDS011;8594;52.052;8.354;2023-02-18T03:36:53;51.60;;;24.73;;
16954;SDS011;8594;52.052;8.354;2023-02-18T03:39:23;52.30;;;25.53;;
16954;SDS011;8594;52.052;8.354;2023-02-18T03:41:54;49.47;;;23.57;;
16954;SDS011;8594;52.052;8.354;2023-02-18T03:44:22;47.20;;;22.80;;
16954;SDS011;8594;52.052;8.354;2023-02-18T03:46:50;48.20;;;23.47;;
16954;SDS011;8594;52.052;8.354;2023-02-18T03:49:18;55.97;;;22.53;;
16954;SDS011;8594;52.052;8.354;2023-02-18T03:51:45;50.00;;;24.23;;
16954;SDS011;8594;52.052;8.354;2023-02-18T03:54:12;52.63;;;23.60;;
16954;SDS011;8594;52.052;8.354;2023-02-18T03:56:39;49.87;;;22.57;;
16954;SDS011;8594;52.052;8.354;2023-02-18T03:59:06;48.03;;;22.30;;
16954;SDS011;8594;52.052;8.354;2023-02-18T04:01:35;45.77;;;21.30;;
16954;SDS011;8594;52.052;8.354;2023-02-18T04:04:01;43.53;;;21.13;;
16954;SDS011;8594;52.052;8.354;2023-02-18T04:06:28;36.13;;;17.97;;
16954;SDS011;8594;52.052;8.354;2023-02-18T04:08:55;39.70;;;19.83;;
16954;SDS011;8594;52.052;8.354;2023-02-18T04:11:22;37.20;;;18.70;;
16954;SDS011;8594;52.052;8.354;2023-02-18T04:13:49;36.97;;;18.00;;
16954;SDS011;8594;52.052;8.354;2023-02-18T04:16:16;32.27;;;16.33;;
16954;SDS011;8594;52.052;8.354;2023-02-18T04:18:44;34.37;;;16.70;;
16954;SDS011;8594;52.052;8.354;2023-02-18T04:21:10;29.97;;;15.60;;
16954;SDS011;8594;52.052;8.354;2023-02-18T04:23:37;27.57;;;14.43;;
16954;SDS011;8594;52.052;8.354;2023-02-18T04:26:04;31.67;;;15.10;;
16954;SDS011;8594;52.052;8.354;2023-02-18T04:28:31;23.37;;;12.93;;
16954;SDS011;8594;52.052;8.354;2023-02-18T04:30:57;32.17;;;16.13;;
16954;SDS011;8594;52.052;8.354;2023-02-18T04:33:24;26.93;;;14.60;;
16954;SDS011;8594;52.052;8.354;2023-02-18T04:35:52;26.00;;;14.10;;
16954;SDS011;8594;52.052;8.354;2023-02-18T04:38:19;27.93;;;14.93;;
16954;SDS011;8594;52.052;8.354;2023-02-18T04:40:46;26.90;;;14.53;;
16954;SDS011;8594;52.052;8.354;2023-02-18T04:43:13;30.03;;;15.63;;
16954;SDS011;8594;52.052;8.354;2023-02-18T04:45:39;30.53;;;15.70;;
16954;SDS011;8594;52.052;8.354;2023-02-18T04:48:06;33.77;;;15.90;;
16954;SDS011;8594;52.052;8.354;2023-02-18T04:50:33;32.53;;;16.40;;
16954;SDS011;8594;52.052;8.354;2023-02-18T04:53:01;33.17;;;17.00;;
16954;SDS011;8594;52.052;8.354;2023-02-18T04:55:28;37.27;;;17.60;;
16954;SDS011;8594;52.052;8.354;2023-02-18T04:57:55;35.37;;;16.97;;
16954;SDS011;8594;52.052;8.354;2023-02-18T05:00:22;35.70;;;17.97;;
16954;SDS011;8594;52.052;8.354;2023-02-18T05:02:48;32.53;;;15.90;;
16954;SDS011;8594;52.052;8.354;2023-02-18T05:05:15;32.13;;;16.93;;
16954;SDS011;8594;52.052;8.354;2023-02-18T05:07:42;33.43;;;17.07;;
16954;SDS011;8594;52.052;8.354;2023-02-18T05:10:11;37.13;;;17.70;;
16954;SDS011;8594;52.052;8.354;2023-02-18T05:12:42;38.67;;;17.60;;
16954;SDS011;8594;52.052;8.354;2023-02-18T05:15:09;37.80;;;18.00;;
16954;SDS011;8594;52.052;8.354;2023-02-18T05:17:36;34.17;;;17.60;;
16954;SDS011;8594;52.052;8.354;2023-02-18T05:20:04;41.03;;;19.20;;
16954;SDS011;8594;52.052;8.354;2023-02-18T05:22:32;36.67;;;17.97;;
16954;SDS011;8594;52.052;8.354;2023-02-18T05:24:59;37.57;;;17.87;;
16954;SDS011;8594;52.052;8.354;2023-02-18T05:27:27;39.60;;;19.07;;
16954;SDS011;8594;52.052;8.354;2023-02-18T05:29:54;40.37;;;19.83;;
16954;SDS011;8594;52.052;8.354;2023-02-18T05:32:21;36.47;;;19.10;;
16954;SDS011;8594;52.052;8.354;2023-02-18T05:34:48;42.70;;;20.57;;
16954;SDS011;8594;52.052;8.354;2023-02-18T05:37:15;43.43;;;20.37;;
16954;SDS011;8594;52.052;8.354;2023-02-18T05:39:42;39.73;;;19.63;;
16954;SDS011;8594;52.052;8.354;2023-02-18T05:42:09;49.77;;;22.43;;
16954;SDS011;8594;52.052;8.354;2023-02-18T05:44:38;48.50;;;22.63;;
16954;SDS011;8594;52.052;8.354;2023-02-18T05:47:05;51.20;;;23.30;;
16954;SDS011;8594;52.052;8.354;2023-02-18T05:49:35;48.20;;;22.83;;
16954;SDS011;8594;52.052;8.354;2023-02-18T05:52:03;48.30;;;23.80;;
16954;SDS011;8594;52.052;8.354;2023-02-18T05:54:30;52.00;;;24.03;;
16954;SDS011;8594;52.052;8.354;2023-02-18T05:56:58;55.97;;;23.67;;
16954;SDS011;8594;52.052;8.354;2023-02-18T05:59:25;51.77;;;23.63;;
16954;SDS011;8594;52.052;8.354;2023-02-18T06:01:54;53.63;;;24.67;;
16954;SDS011;8594;52.052;8.354;2023-02-18T06:04:21;50.37;;;23.40;;
16954;SDS011;8594;52.052;8.354;2023-02-18T06:06:48;50.37;;;23.63;;
16954;SDS011;8594;52.052;8.354;2023-02-18T06:09:15;46.80;;;21.97;;
16954;SDS011;8594;52.052;8.354;2023-02-18T06:11:42;50.43;;;23.07;;
16954;SDS011;8594;52.052;8.354;2023-02-18T06:14:09;45.33;;;21.20;;
16954;SDS011;8594;52.052;8.354;2023-02-18T06:16:35;51.77;;;22.47;;
16954;SDS011;8594;52.052;8.354;2023-02-18T06:19:04;46.40;;;21.90;;
16954;SDS011;8594;52.052;8.354;2023-02-18T06:21:31;45.33;;;20.90;;
16954;SDS011;8594;52.052;8.354;2023-02-18T06:23:58;40.83;;;19.60;;
16954;SDS011;8594;52.052;8.354;2023-02-18T06:26:24;47.47;;;20.07;;
16954;SDS011;8594;52.052;8.354;2023-02-18T06:28:52;41.13;;;19.60;;
16954;SDS011;8594;52.052;8.354;2023-02-18T06:31:18;39.97;;;18.63;;
16954;SDS011;8594;52.052;8.354;2023-02-18T06:33:45;40.77;;;18.47;;
16954;SDS011;8594;52.052;8.354;2023-02-18T06:36:13;38.03;;;17.87;;
16954;SDS011;8594;52.052;8.354;2023-02-18T06:38:41;38.83;;;16.43;;
16954;SDS011;8594;52.052;8.354;2023-02-18T06:41:11;33.27;;;15.60;;
16954;SDS011;8594;52.052;8.354;2023-02-18T06:43:39;33.97;;;15.40;;
16954;SDS011;8594;52.052;8.354;2023-02-18T06:46:06;28.97;;;14.13;;
16954;SDS011;8594;52.052;8.354;2023-02-18T06:48:33;27.90;;;13.87;;
16954;SDS011;8594;52.052;8.354;2023-02-18T06:51:00;25.33;;;12.33;;
16954;SDS011;8594;52.052;8.354;2023-02-18T06:53:28;27.50;;;12.60;;
16954;SDS011;8594;52.052;8.354;2023-02-18T06:55:55;27.40;;;12.17;;
16954;SDS011;8594;52.052;8.354;2023-02-18T06:58:23;23.33;;;11.50;;
16954;SDS011;8594;52.052;8.354;2023-02-18T07:00:49;25.43;;;11.40;;
16954;SDS011;8594;52.052;8.354;2023-02-18T07:03:16;21.40;;;10.80;;
16954;SDS011;8594;52.052;8.354;2023-02-18T07:05:43;22.13;;;10.30;;
16954;SDS011;8594;52.052;8.354;2023-02-18T07:08:10;17.60;;;9.07;;
16954;SDS011;8594;52.052;8.354;2023-02-18T07:10:39;21.20;;;9.63;;
16954;SDS011;8594;52.052;8.354;2023-02-18T07:13:06;19.67;;;9.67;;
16954;SDS011;8594;52.052;8.354;2023-02-18T07:15:33;16.57;;;9.13;;
16954;SDS011;8594;52.052;8.354;2023-02-18T07:17:59;17.17;;;9.53;;
16954;SDS011;8594;52.052;8.354;2023-02-18T07:20:26;17.03;;;9.60;;
16954;SDS011;8594;52.052;8.354;2023-02-18T07:22:54;15.67;;;9.40;;
16954;SDS011;8594;52.052;8.354;2023-02-18T07:25:21;18.37;;;9.87;;
16954;SDS011;8594;52.052;8.354;2023-02-18T07:27:49;16.63;;;10.33;;
16954;SDS011;8594;52.052;8.354;2023-02-18T07:30:17;17.23;;;9.87;;
16954;SDS011;8594;52.052;8.354;2023-02-18T07:32:44;16.90;;;9.90;;
16954;SDS011;8594;52.052;8.354;2023-02-18T07:35:12;15.53;;;9.20;;
16954;SDS011;8594;52.052;8.354;2023-02-18T07:37:42;16.53;;;9.37;;
16954;SDS011;8594;52.052;8.354;2023-02-18T07:40:11;16.23;;;9.77;;
16954;SDS011;8594;52.052;8.354;2023-02-18T07:42:40;14.53;;;9.50;;
16954;SDS011;8594;52.052;8.354;2023-02-18T07:45:09;17.47;;;9.40;;
16954;SDS011;8594;52.052;8.354;2023-02-18T07:47:37;13.87;;;8.30;;
16954;SDS011;8594;52.052;8.354;2023-02-18T07:50:06;16.30;;;9.50;;
16954;SDS011;8594;52.052;8.354;2023-02-18T07:52:34;12.80;;;8.30;;
16954;SDS011;8594;52.052;8.354;2023-02-18T07:55:01;14.43;;;7.57;;
16954;SDS011;8594;52.052;8.354;2023-02-18T07:57:27;11.20;;;7.73;;
16954;SDS011;8594;52.052;8.354;2023-02-18T07:59:54;10.80;;;6.97;;
16954;SDS011;8594;52.052;8.354;2023-02-18T08:02:23;9.83;;;6.73;;
16954;SDS011;8594;52.052;8.354;2023-02-18T08:04:50;9.00;;;5.93;;
16954;SDS011;8594;52.052;8.354;2023-02-18T08:07:17;8.83;;;6.20;;
16954;SDS011;8594;52.052;8.354;2023-02-18T08:09:46;10.07;;;6.37;;
16954;SDS011;8594;52.052;8.354;2023-02-18T08:12:14;9.70;;;5.60;;
16954;SDS011;8594;52.052;8.354;2023-02-18T08:14:41;8.77;;;5.97;;
16954;SDS011;8594;52.052;8.354;2023-02-18T08:17:08;9.77;;;5.93;;
16954;SDS011;8594;52.052;8.354;2023-02-18T08:19:36;8.50;;;5.50;;
16954;SDS011;8594;52.052;8.354;2023-02-18T08:22:03;9.33;;;5.40;;
16954;SDS011;8594;52.052;8.354;2023-02-18T08:24:29;9.03;;;5.97;;
16954;SDS011;8594;52.052;8.354;2023-02-18T08:26:56;7.80;;;5.47;;
16954;SDS011;8594;52.052;8.354;2023-02-18T08:29:24;8.43;;;5.27;;
16954;SDS011;8594;52.052;8.354;2023-02-18T08:31:50;7.13;;;4.93;;
16954;SDS011;8594;52.052;8.354;2023-02-18T08:34:18;7.83;;;5.00;;
16954;SDS011;8594;52.052;8.354;2023-02-18T08:36:47;6.63;;;4.37;;
16954;SDS011;8594;52.052;8.354;2023-02-18T08:39:14;6.80;;;4.10;;
16954;SDS011;8594;52.052;8.354;2023-02-18T08:41:40;6.33;;;4.40;;
16954;SDS011;8594;52.052;8.354;2023-02-18T08:44:07;7.53;;;4.30;;
16954;SDS011;8594;52.052;8.354;2023-02-18T08:46:34;7.33;;;4.20;;
16954;SDS011;8594;52.052;8.354;2023-02-18T08:49:01;7.07;;;4.20;;
16954;SDS011;8594;52.052;8.354;2023-02-18T08:51:29;5.70;;;3.70;;
16954;SDS011;8594;52.052;8.354;2023-02-18T08:53:57;8.20;;;3.63;;
16954;SDS011;8594;52.052;8.354;2023-02-18T08:56:25;5.47;;;3.30;;
16954;SDS011;8594;52.052;8.354;2023-02-18T08:58:52;5.13;;;3.50;;
16954;SDS011;8594;52.052;8.354;2023-02-18T09:01:19;4.43;;;2.83;;
16954;SDS011;8594;52.052;8.354;2023-02-18T09:03:46;5.70;;;3.47;;
16954;SDS011;8594;52.052;8.354;2023-02-18T09:06:13;5.00;;;3.20;;
16954;SDS011;8594;52.052;8.354;2023-02-18T09:08:40;4.63;;;3.23;;
16954;SDS011;8594;52.052;8.354;2023-02-18T09:11:09;6.70;;;3.50;;
16954;SDS011;8594;52.052;8.354;2023-02-18T09:13:36;5.67;;;3.67;;
16954;SDS011;8594;52.052;8.354;2023-02-18T09:16:05;5.00;;;3.47;;
16954;SDS011;8594;52.052;8.354;2023-02-18T09:18:36;7.87;;;4.20;;
16954;SDS011;8594;52.052;8.354;2023-02-18T09:21:03;5.53;;;3.80;;
16954;SDS011;8594;52.052;8.354;2023-02-18T09:23:33;5.73;;;4.03;;
16954;SDS011;8594;52.052;8.354;2023-02-18T09:26:02;6.47;;;3.73;;
16954;SDS011;8594;52.052;8.354;2023-02-18T09:28:32;5.43;;;3.97;;
16954;SDS011;8594;52.052;8.354;2023-02-18T09:31:02;5.27;;;3.60;;
16954;SDS011;8594;52.052;8.354;2023-02-18T09:33:33;6.23;;;4.10;;
16954;SDS011;8594;52.052;8.354;2023-02-18T09:36:01;6.07;;;3.97;;
16954;SDS011;8594;52.052;8.354;2023-02-18T09:38:29;6.13;;;3.80;;
16954;SDS011;8594;52.052;8.354;2023-02-18T09:40:56;6.43;;;4.77;;
16954;SDS011;8594;52.052;8.354;2023-02-18T09:43:27;5.80;;;3.90;;
16954;SDS011;8594;52.052;8.354;2023-02-18T09:46:00;5.90;;;4.07;;
16954;SDS011;8594;52.052;8.354;2023-02-18T09:48:31;5.30;;;3.97;;
16954;SDS011;8594;52.052;8.354;2023-02-18T09:51:02;5.23;;;3.37;;
16954;SDS011;8594;52.052;8.354;2023-02-18T09:53:29;5.10;;;3.40;;
16954;SDS011;8594;52.052;8.354;2023-02-18T09:55:56;6.87;;;3.70;;
16954;SDS011;8594;52.052;8.354;2023-02-18T09:58:27;5.27;;;3.60;;
16954;SDS011;8594;52.052;8.354;2023-02-18T10:01:01;5.93;;;3.63;;
16954;SDS011;8594;52.052;8.354;2023-02-18T10:03:31;5.27;;;3.77;;
16954;SDS011;8594;52.052;8.354;2023-02-18T10:06:01;4.27;;;3.27;;
16954;SDS011;8594;52.052;8.354;2023-02-18T10:08:33;7.23;;;3.77;;
16954;SDS011;8594;52.052;8.354;2023-02-18T10:11:03;4.97;;;3.23;;
16954;SDS011;8594;52.052;8.354;2023-02-18T10:13:39;4.63;;;3.00;;
16954;SDS011;8594;52.052;8.354;2023-02-18T10:16:08;5.13;;;3.13;;
16954;SDS011;8594;52.052;8.354;2023-02-18T10:18:41;4.17;;;2.80;;
16954;SDS011;8594;52.052;8.354;2023-02-18T10:21:14;6.03;;;3.10;;
16954;SDS011;8594;52.052;8.354;2023-02-18T10:23:46;4.60;;;3.37;;
16954;SDS011;8594;52.052;8.354;2023-02-18T10:26:23;5.23;;;3.40;;
16954;SDS011;8594;52.052;8.354;2023-02-18T10:28:50;4.40;;;2.97;;
16954;SDS011;8594;52.052;8.354;2023-02-18T10:31:21;7.80;;;3.37;;
16954;SDS011;8594;52.052;8.354;2023-02-18T10:33:58;9.57;;;3.93;;
16954;SDS011;8594;52.052;8.354;2023-02-18T10:36:34;6.87;;;3.83;;
16954;SDS011;8594;52.052;8.354;2023-02-18T10:39:31;7.17;;;3.60;;
16954;SDS011;8594;52.052;8.354;2023-02-18T10:42:16;7.37;;;4.07;;
16954;SDS011;8594;52.052;8.354;2023-02-18T10:44:58;7.47;;;4.30;;
16954;SDS011;8594;52.052;8.354;2023-02-18T10:47:39;6.80;;;3.93;;
16954;SDS011;8594;52.052;8.354;2023-02-18T10:50:23;6.90;;;3.97;;
16954;SDS011;8594;52.052;8.354;2023-02-18T10:52:56;5.63;;;3.93;;
16954;SDS011;8594;52.052;8.354;2023-02-18T10:55:34;5.73;;;4.10;;
16954;SDS011;8594;52.052;8.354;2023-02-18T10:58:09;8.30;;;4.50;;
16954;SDS011;8594;52.052;8.354;2023-02-18T11:00:54;8.17;;;4.47;;
16954;SDS011;8594;52.052;8.354;2023-02-18T11:03:24;6.43;;;4.27;;
16954;SDS011;8594;52.052;8.354;2023-02-18T11:06:05;7.57;;;3.90;;
16954;SDS011;8594;52.052;8.354;2023-02-18T11:08:44;7.83;;;4.43;;
16954;SDS011;8594;52.052;8.354;2023-02-18T11:11:13;8.37;;;4.70;;
16954;SDS011;8594;52.052;8.354;2023-02-18T11:13:50;9.67;;;4.67;;
16954;SDS011;8594;52.052;8.354;2023-02-18T11:16:20;7.97;;;4.57;;
16954;SDS011;8594;52.052;8.354;2023-02-18T11:18:49;10.10;;;4.80;;
16954;SDS011;8594;52.052;8.354;2023-02-18T11:21:21;11.97;;;5.10;;
16954;SDS011;8594;52.052;8.354;2023-02-18T11:23:55;8.70;;;4.77;;
16954;SDS011;8594;52.052;8.354;2023-02-18T11:26:31;7.33;;;4.37;;
16954;SDS011;8594;52.052;8.354;2023-02-18T11:29:02;9.50;;;4.57;;
16954;SDS011;8594;52.052;8.354;2023-02-18T11:31:38;8.33;;;4.33;;
16954;SDS011;8594;52.052;8.354;2023-02-18T11:34:14;7.20;;;4.60;;
16954;SDS011;8594;52.052;8.354;2023-02-18T11:36:45;6.53;;;4.30;;
16954;SDS011;8594;52.052;8.354;2023-02-18T11:39:16;9.53;;;4.27;;
16954;SDS011;8594;52.052;8.354;2023-02-18T11:41:47;6.43;;;4.03;;
16954;SDS011;8594;52.052;8.354;2023-02-18T11:44:21;6.13;;;3.77;;
16954;SDS011;8594;52.052;8.354;2023-02-18T11:46:55;4.43;;;3.37;;
16954;SDS011;8594;52.052;8.354;2023-02-18T11:49:27;9.03;;;4.07;;
16954;SDS011;8594;52.052;8.354;2023-02-18T11:52:02;8.17;;;4.40;;
16954;SDS011;8594;52.052;8.354;2023-02-18T11:54:39;8.80;;;3.60;;
16954;SDS011;8594;52.052;8.354;2023-02-18T11:57:09;7.50;;;5.03;;
16954;SDS011;8594;52.052;8.354;2023-02-18T11:59:39;4.80;;;3.23;;
16954;SDS011;8594;52.052;8.354;2023-02-18T12:02:12;5.93;;;3.30;;
16954;SDS011;8594;52.052;8.354;2023-02-18T12:04:59;6.00;;;3.70;;
16954;SDS011;8594;52.052;8.354;2023-02-18T12:07:38;7.43;;;3.77;;
16954;SDS011;8594;52.052;8.354;2023-02-18T12:10:11;5.93;;;3.73;;
16954;SDS011;8594;52.052;8.354;2023-02-18T12:12:45;6.63;;;3.70;;
16954;SDS011;8594;52.052;8.354;2023-02-18T12:15:19;5.67;;;3.47;;
16954;SDS011;8594;52.052;8.354;2023-02-18T12:17:58;6.97;;;3.77;;
16954;SDS011;8594;52.052;8.354;2023-02-18T12:20:55;6.17;;;3.87;;
16954;SDS011;8594;52.052;8.354;2023-02-18T12:23:41;5.97;;;3.57;;
16954;SDS011;8594;52.052;8.354;2023-02-18T12:26:21;7.40;;;3.50;;
16954;SDS011;8594;52.052;8.354;2023-02-18T12:29:00;7.23;;;3.90;;
16954;SDS011;8594;52.052;8.354;2023-02-18T12:31:49;5.97;;;3.40;;
16954;SDS011;8594;52.052;8.354;2023-02-18T12:34:37;6.50;;;3.37;;
16954;SDS011;8594;52.052;8.354;2023-02-18T12:37:26;7.17;;;3.93;;
16954;SDS011;8594;52.052;8.354;2023-02-18T12:43:34;6.07;;;3.93;;
16954;SDS011;8594;52.052;8.354;2023-02-18T12:46:16;7.37;;;3.97;;
16954;SDS011;8594;52.052;8.354;2023-02-18T12:49:09;8.83;;;4.33;;
16954;SDS011;8594;52.052;8.354;2023-02-18T12:52:00;9.13;;;4.50;;
16954;SDS011;8594;52.052;8.354;2023-02-18T12:54:57;7.50;;;4.43;;
16954;SDS011;8594;52.052;8.354;2023-02-18T12:57:50;6.63;;;4.77;;
16954;SDS011;8594;52.052;8.354;2023-02-18T13:00:33;7.50;;;4.83;;
16954;SDS011;8594;52.052;8.354;2023-02-18T13:03:30;8.10;;;4.43;;
16954;SDS011;8594;52.052;8.354;2023-02-18T13:06:41;11.80;;;4.83;;
16954;SDS011;8594;52.052;8.354;2023-02-18T13:10:06;9.67;;;5.43;;
16954;SDS011;8594;52.052;8.354;2023-02-18T13:12:52;9.30;;;5.03;;
16954;SDS011;8594;52.052;8.354;2023-02-18T13:15:27;9.37;;;5.50;;
16954;SDS011;8594;52.052;8.354;2023-02-18T13:18:05;13.07;;;5.70;;
16954;SDS011;8594;52.052;8.354;2023-02-18T13:20:41;8.57;;;5.00;;
16954;SDS011;8594;52.052;8.354;2023-02-18T13:23:15;9.53;;;5.50;;
16954;SDS011;8594;52.052;8.354;2023-02-18T13:25:46;8.87;;;5.20;;
16954;SDS011;8594;52.052;8.354;2023-02-18T13:28:22;10.97;;;6.07;;
16954;SDS011;8594;52.052;8.354;2023-02-18T13:31:01;8.17;;;5.60;;
16954;SDS011;8594;52.052;8.354;2023-02-18T13:33:46;10.07;;;5.43;;
16954;SDS011;8594;52.052;8.354;2023-02-18T13:36:35;12.77;;;5.80;;
16954;SDS011;8594;52.052;8.354;2023-02-18T13:39:20;12.60;;;5.73;;
16954;SDS011;8594;52.052;8.354;2023-02-18T13:41:51;9.10;;;6.07;;
16954;SDS011;8594;52.052;8.354;2023-02-18T13:45:02;12.57;;;6.50;;
16954;SDS011;8594;52.052;8.354;2023-02-18T13:47:51;10.77;;;6.30;;
16954;SDS011;8594;52.052;8.354;2023-02-18T13:50:24;11.63;;;6.47;;
16954;SDS011;8594;52.052;8.354;2023-02-18T13:53:20;16.87;;;7.57;;
16954;SDS011;8594;52.052;8.354;2023-02-18T13:55:52;13.53;;;6.50;;
16954;SDS011;8594;52.052;8.354;2023-02-18T13:58:30;13.20;;;6.70;;
16954;SDS011;8594;52.052;8.354;2023-02-18T14:01:04;17.00;;;7.00;;
16954;SDS011;8594;52.052;8.354;2023-02-18T14:03:50;12.83;;;6.93;;
16954;SDS011;8594;52.052;8.354;2023-02-18T14:06:25;13.33;;;6.87;;
16954;SDS011;8594;52.052;8.354;2023-02-18T14:12:21;16.40;;;7.47;;
16954;SDS011;8594;52.052;8.354;2023-02-18T14:15:01;10.53;;;6.97;;
16954;SDS011;8594;52.052;8.354;2023-02-18T14:18:08;14.97;;;6.87;;
16954;SDS011;8594;52.052;8.354;2023-02-18T14:20:49;12.90;;;6.90;;
16954;SDS011;8594;52.052;8.354;2023-02-18T14:26:32;13.90;;;6.90;;
16954;SDS011;8594;52.052;8.354;2023-02-18T14:29:09;20.37;;;7.70;;
16954;SDS011;8594;52.052;8.354;2023-02-18T14:31:47;13.97;;;6.67;;
16954;SDS011;8594;52.052;8.354;2023-02-18T14:40:39;21.53;;;7.43;;
16954;SDS011;8594;52.052;8.354;2023-02-18T14:43:38;11.43;;;6.60;;
16954;SDS011;8594;52.052;8.354;2023-02-18T14:46:29;17.87;;;6.43;;
16954;SDS011;8594;52.052;8.354;2023-02-18T14:49:17;12.60;;;6.73;;
16954;SDS011;8594;52.052;8.354;2023-02-18T14:52:01;14.63;;;6.87;;
16954;SDS011;8594;52.052;8.354;2023-02-18T14:54:31;12.93;;;5.87;;
16954;SDS011;8594;52.052;8.354;2023-02-18T14:56:59;11.03;;;6.10;;
16954;SDS011;8594;52.052;8.354;2023-02-18T14:59:31;14.13;;;6.27;;
16954;SDS011;8594;52.052;8.354;2023-02-18T15:02:08;13.30;;;6.30;;
16954;SDS011;8594;52.052;8.354;2023-02-18T15:04:47;10.43;;;5.80;;
16954;SDS011;8594;52.052;8.354;2023-02-18T15:07:16;11.43;;;6.33;;
16954;SDS011;8594;52.052;8.354;2023-02-18T15:09:46;11.93;;;5.63;;
16954;SDS011;8594;52.052;8.354;2023-02-18T15:12:17;9.20;;;5.40;;
16954;SDS011;8594;52.052;8.354;2023-02-18T15:14:48;16.17;;;6.20;;
16954;SDS011;8594;52.052;8.354;2023-02-18T15:17:19;11.33;;;5.80;;
16954;SDS011;8594;52.052;8.354;2023-02-18T15:19:53;9.50;;;5.50;;
16954;SDS011;8594;52.052;8.354;2023-02-18T15:22:22;11.03;;;5.20;;
16954;SDS011;8594;52.052;8.354;2023-02-18T15:24:52;8.20;;;5.27;;
16954;SDS011;8594;52.052;8.354;2023-02-18T15:27:21;11.83;;;5.37;;
16954;SDS011;8594;52.052;8.354;2023-02-18T15:29:51;12.97;;;5.33;;
16954;SDS011;8594;52.052;8.354;2023-02-18T15:32:24;11.80;;;5.27;;
16954;SDS011;8594;52.052;8.354;2023-02-18T15:34:55;8.13;;;4.80;;
16954;SDS011;8594;52.052;8.354;2023-02-18T15:37:25;10.90;;;5.43;;
16954;SDS011;8594;52.052;8.354;2023-02-18T15:39:53;12.10;;;5.10;;
16954;SDS011;8594;52.052;8.354;2023-02-18T15:42:23;10.60;;;5.73;;